Time;durP1;ratioP1;P1;durP2;ratioP2;P2;SDS_P1;SDS_P2;PMS_P1;PMS_P2;Temp;Humidity;BMP_temperature;BMP_pressure;BME280_temperature;BME280_humidity;BME280_pressure;Samples;Min_cycle;Max_cycle;Signal;HPM_P1;HPM_P2
2022/08/15 00:01:25;;;;;;;3.60;3.30;;;26.50;46.40;;;;;;4995241;28;20577;-72
2022/08/15 00:03:55;;;;;;;3.67;3.37;;;26.50;46.50;;;;;;5009750;28;20659;-72
2022/08/15 00:06:28;;;;;;;3.30;2.97;;;26.40;46.70;;;;;;5009668;28;20568;-72
2022/08/15 00:08:57;;;;;;;3.37;2.70;;;26.40;46.80;;;;;;5010007;28;20577;-72
2022/08/15 00:11:36;;;;;;;3.27;2.97;;;26.40;46.80;;;;;;4993051;28;20578;-73
2022/08/15 00:14:15;;;;;;;4.40;3.73;;;26.30;47.00;;;;;;4976501;28;20606;-72
2022/08/15 00:16:43;;;;;;;4.10;2.90;;;26.30;47.10;;;;;;4994441;28;20569;-71
2022/08/15 00:19:15;;;;;;;3.20;2.60;;;26.30;46.90;;;;;;4993571;28;20972;-71
2022/08/15 00:21:51;;;;;;;4.70;2.90;;;26.30;47.10;;;;;;4994724;28;20566;-72
2022/08/15 00:24:20;;;;;;;6.47;3.40;;;26.30;47.10;;;;;;5009452;28;20669;-72
2022/08/15 00:26:51;;;;;;;3.93;3.53;;;26.30;47.10;;;;;;4992220;28;20574;-72
2022/08/15 00:29:19;;;;;;;4.77;3.47;;;26.30;47.10;;;;;;4991815;28;21129;-72
2022/08/15 00:31:46;;;;;;;3.77;3.20;;;26.30;47.20;;;;;;4992931;28;20602;-72
2022/08/15 00:34:15;;;;;;;3.10;2.73;;;26.30;47.20;;;;;;4993227;28;20600;-72
2022/08/15 00:36:41;;;;;;;10.27;3.90;;;26.30;47.30;;;;;;5009016;28;21137;-72
2022/08/15 00:39:08;;;;;;;3.70;2.57;;;26.30;47.20;;;;;;4993392;28;20989;-71
2022/08/15 00:41:41;;;;;;;4.93;4.43;;;26.30;47.30;;;;;;4992925;28;20918;-72
2022/08/15 00:44:18;;;;;;;3.60;3.17;;;26.30;47.30;;;;;;4992080;28;20629;-72
2022/08/15 00:46:59;;;;;;;3.20;2.90;;;26.30;47.60;;;;;;5008986;28;20577;-71
2022/08/15 00:49:28;;;;;;;3.60;3.30;;;26.20;47.50;;;;;;4994382;28;21126;-72
2022/08/15 00:52:11;;;;;;;5.40;2.83;;;26.30;47.60;;;;;;4994375;28;20998;-71
2022/08/15 00:54:50;;;;;;;3.60;3.20;;;26.20;47.60;;;;;;4992470;28;20634;-73
2022/08/15 00:57:37;;;;;;;6.30;2.83;;;26.20;47.80;;;;;;4994311;28;20598;-72
2022/08/15 01:00:12;;;;;;;3.43;3.10;;;26.20;47.60;;;;;;4976886;28;20566;-72
2022/08/15 01:02:39;;;;;;;3.40;3.10;;;26.20;47.60;;;;;;4992858;28;20636;-73
2022/08/15 01:05:10;;;;;;;4.17;3.23;;;26.20;47.50;;;;;;4993497;28;20554;-72
2022/08/15 01:07:37;;;;;;;3.13;2.90;;;26.20;47.60;;;;;;4992628;28;20624;-72
2022/08/15 01:10:07;;;;;;;3.37;2.90;;;26.20;47.50;;;;;;4993643;28;20653;-72
2022/08/15 01:12:36;;;;;;;3.10;2.77;;;26.20;47.60;;;;;;4993635;28;20570;-73
2022/08/15 01:15:08;;;;;;;3.13;2.83;;;26.20;47.50;;;;;;4992135;28;20598;-72
2022/08/15 01:17:34;;;;;;;3.30;3.00;;;26.20;47.60;;;;;;4993807;28;20566;-72
2022/08/15 01:20:03;;;;;;;2.50;2.30;;;26.20;47.60;;;;;;4993754;28;20566;-71
2022/08/15 01:23:01;;;;;;;2.73;2.30;;;26.20;47.60;;;;;;4976224;28;20563;-72
2022/08/15 01:25:40;;;;;;;3.47;3.17;;;26.10;47.70;;;;;;4975682;28;20578;-71
2022/08/15 01:28:18;;;;;;;3.27;2.73;;;26.10;47.70;;;;;;4992275;28;20562;-72
2022/08/15 01:30:47;;;;;;;3.60;2.70;;;26.10;47.60;;;;;;4992233;28;20625;-72
2022/08/15 01:33:13;;;;;;;4.60;2.40;;;26.10;47.60;;;;;;4975887;28;20629;-73
2022/08/15 01:35:40;;;;;;;2.67;2.43;;;26.10;47.60;;;;;;4975550;28;20586;-72
2022/08/15 01:38:35;;;;;;;2.97;2.40;;;26.10;47.60;;;;;;4992191;28;20582;-71
2022/08/15 01:41:15;;;;;;;3.00;2.70;;;26.10;47.70;;;;;;4975780;28;20674;-72
2022/08/15 01:43:57;;;;;;;3.53;2.77;;;26.10;47.70;;;;;;4992044;28;20984;-72
2022/08/15 01:46:32;;;;;;;8.93;2.73;;;26.10;47.70;;;;;;4993004;28;20566;-72
2022/08/15 01:49:10;;;;;;;4.50;2.97;;;26.10;47.80;;;;;;4992115;28;20637;-73
2022/08/15 01:51:36;;;;;;;2.33;2.10;;;26.10;47.70;;;;;;4992082;28;21140;-73
2022/08/15 01:54:08;;;;;;;2.77;2.10;;;26.10;47.70;;;;;;4992880;28;20637;-72
2022/08/15 01:56:39;;;;;;;2.80;2.13;;;26.10;47.80;;;;;;4991517;28;20175;-73
2022/08/15 01:59:11;;;;;;;5.27;2.50;;;26.10;47.70;;;;;;4991762;28;20589;-73
2022/08/15 02:01:58;;;;;;;2.47;2.07;;;26.00;47.70;;;;;;4991340;28;20571;-73
2022/08/15 02:04:31;;;;;;;6.33;2.93;;;26.00;47.80;;;;;;4975616;28;20609;-72
2022/08/15 02:07:00;;;;;;;3.27;2.10;;;26.00;47.90;;;;;;5007788;28;20586;-72
2022/08/15 02:09:29;;;;;;;4.27;2.33;;;26.00;47.80;;;;;;4991759;28;20929;-72
2022/08/15 02:11:57;;;;;;;2.80;1.90;;;26.00;47.90;;;;;;4991619;28;21158;-72
2022/08/15 02:14:23;;;;;;;2.47;2.27;;;26.00;47.90;;;;;;4992639;28;20625;-72
2022/08/15 02:16:49;;;;;;;3.63;2.40;;;26.00;48.00;;;;;;4975012;28;20571;-72
2022/08/15 02:19:16;;;;;;;2.80;2.00;;;26.00;48.00;;;;;;4992857;28;20250;-73
2022/08/15 02:21:45;;;;;;;4.10;3.03;;;26.00;48.10;;;;;;4959171;28;20942;-73
2022/08/15 02:24:18;;;;;;;4.27;2.10;;;26.00;48.10;;;;;;5006449;22;20622;-78
2022/08/15 02:26:49;;;;;;;1.80;1.40;;;26.00;48.20;;;;;;4932589;29;20601;-78
2022/08/15 02:29:15;;;;;;;2.70;2.20;;;26.00;48.20;;;;;;4914567;29;20589;-78
2022/08/15 02:31:43;;;;;;;3.47;2.23;;;26.00;48.20;;;;;;4940365;29;20589;-78
2022/08/15 02:34:10;;;;;;;2.70;1.93;;;26.00;48.30;;;;;;4933432;29;20628;-78
2022/08/15 02:36:38;;;;;;;2.50;2.07;;;26.00;48.30;;;;;;4933100;29;20577;-78
2022/08/15 02:39:08;;;;;;;2.43;1.83;;;26.00;48.40;;;;;;4933480;29;20298;-78
2022/08/15 02:41:42;;;;;;;3.10;1.93;;;26.00;48.50;;;;;;4916482;29;20929;-78
2022/08/15 02:44:11;;;;;;;3.37;2.13;;;25.90;48.60;;;;;;4932030;29;20581;-79
2022/08/15 02:46:39;;;;;;;2.57;1.83;;;25.90;48.60;;;;;;4933110;29;21112;-78
2022/08/15 02:49:10;;;;;;;3.70;2.57;;;25.90;48.70;;;;;;4933283;29;21171;-78
2022/08/15 02:51:41;;;;;;;3.53;2.07;;;25.90;48.70;;;;;;4917445;29;20585;-79
2022/08/15 02:54:08;;;;;;;2.20;1.97;;;25.90;48.80;;;;;;4933052;29;20619;-79
2022/08/15 02:56:36;;;;;;;3.67;2.43;;;25.90;48.90;;;;;;4950634;28;20584;-79
2022/08/15 02:59:07;;;;;;;3.53;2.03;;;25.90;48.90;;;;;;4932882;29;20584;-79
2022/08/15 03:01:37;;;;;;;2.57;2.20;;;25.90;48.90;;;;;;4936171;29;20981;-79
2022/08/15 03:04:07;;;;;;;3.70;2.07;;;26.00;49.10;;;;;;4933029;29;20580;-79
2022/08/15 03:06:34;;;;;;;2.37;2.07;;;25.90;49.10;;;;;;4917007;29;20573;-79
2022/08/15 03:09:07;;;;;;;3.43;1.87;;;25.90;49.10;;;;;;4951986;28;20589;-79
2022/08/15 03:11:38;;;;;;;2.30;1.77;;;25.90;49.20;;;;;;4936889;29;20965;-80
2022/08/15 03:14:12;;;;;;;3.20;1.90;;;25.90;49.30;;;;;;4936798;29;20624;-79
2022/08/15 03:16:42;;;;;;;2.60;1.97;;;26.00;49.40;;;;;;4920649;29;21123;-79
2022/08/15 03:19:12;;;;;;;2.30;1.50;;;26.00;49.40;;;;;;4936838;29;20588;-79
2022/08/15 03:21:39;;;;;;;3.60;1.73;;;26.00;49.40;;;;;;4936808;29;20975;-79
2022/08/15 03:24:06;;;;;;;2.10;1.50;;;26.00;49.50;;;;;;4937737;29;20608;-79
2022/08/15 03:26:32;;;;;;;2.30;1.53;;;26.00;49.60;;;;;;4936352;29;20981;-79
2022/08/15 03:29:00;;;;;;;2.87;1.63;;;26.00;49.60;;;;;;4937996;29;20587;-79
2022/08/15 03:31:26;;;;;;;3.43;1.80;;;26.00;49.60;;;;;;4936814;29;20689;-79
2022/08/15 03:33:52;;;;;;;1.77;1.53;;;26.00;50.20;;;;;;4937772;29;21073;-79
2022/08/15 03:36:21;;;;;;;5.00;1.87;;;25.90;49.60;;;;;;4938136;29;20196;-80
2022/08/15 03:38:48;;;;;;;3.17;2.03;;;26.00;49.80;;;;;;4954426;28;20974;-79
2022/08/15 03:41:15;;;;;;;2.13;1.50;;;26.00;49.90;;;;;;4936612;29;20569;-79
2022/08/15 03:43:44;;;;;;;4.20;1.50;;;26.00;49.90;;;;;;4952412;29;20633;-79
2022/08/15 03:46:16;;;;;;;3.83;2.10;;;26.00;50.00;;;;;;4951970;28;20600;-79
2022/08/15 03:48:47;;;;;;;3.77;1.60;;;26.00;50.00;;;;;;4952451;28;21115;-79
2022/08/15 03:51:15;;;;;;;2.23;1.40;;;26.00;50.60;;;;;;4936301;29;20679;-79
2022/08/15 03:53:45;;;;;;;2.00;1.50;;;26.00;50.00;;;;;;4936163;29;20624;-79
2022/08/15 03:56:18;;;;;;;6.10;1.53;;;26.00;50.10;;;;;;4951767;28;20655;-79
2022/08/15 03:58:45;;;;;;;6.30;2.07;;;26.00;50.10;;;;;;4952059;29;20583;-77
2022/08/15 04:01:21;;;;;;;2.80;1.80;;;26.00;50.10;;;;;;4936218;29;20667;-78
2022/08/15 04:03:48;;;;;;;2.53;1.57;;;26.00;50.20;;;;;;4937387;29;21256;-78
2022/08/15 04:06:19;;;;;;;2.47;1.40;;;26.00;50.20;;;;;;4919756;29;20604;-78
2022/08/15 04:08:50;;;;;;;2.33;1.20;;;26.00;50.20;;;;;;4935924;29;20582;-78
2022/08/15 04:11:19;;;;;;;3.00;1.30;;;26.00;50.30;;;;;;4952003;29;20584;-78
2022/08/15 04:13:46;;;;;;;2.80;1.53;;;26.00;50.30;;;;;;4956674;28;20973;-78
2022/08/15 04:16:15;;;;;;;4.20;1.67;;;26.00;50.30;;;;;;4950556;28;21179;-78
2022/08/15 04:18:41;;;;;;;2.47;1.43;;;26.00;50.30;;;;;;4954519;28;20584;-79
2022/08/15 04:21:11;;;;;;;3.60;1.57;;;26.00;50.40;;;;;;4938439;29;20580;-78
2022/08/15 04:23:40;;;;;;;2.80;1.30;;;26.00;50.50;;;;;;4946213;28;20595;-79
2022/08/15 04:26:06;;;;;;;6.67;1.57;;;26.00;50.50;;;;;;4961194;28;20631;-79
2022/08/15 04:28:33;;;;;;;1.97;1.50;;;26.00;50.60;;;;;;4955430;28;20613;-78
2022/08/15 04:31:02;;;;;;;2.30;1.40;;;26.00;50.70;;;;;;4957766;28;20579;-79
2022/08/15 04:33:31;;;;;;;3.10;1.17;;;26.00;50.80;;;;;;4973998;28;20610;-78
2022/08/15 04:35:58;;;;;;;4.30;1.37;;;26.00;50.80;;;;;;4958013;28;20673;-79
2022/08/15 04:38:24;;;;;;;4.00;2.03;;;26.00;50.90;;;;;;4958254;28;20575;-79
2022/08/15 04:40:52;;;;;;;4.90;1.87;;;26.00;50.90;;;;;;4958475;28;20563;-79
2022/08/15 04:43:19;;;;;;;2.30;1.30;;;25.90;50.90;;;;;;4975626;28;20669;-78
2022/08/15 04:45:47;;;;;;;3.60;1.10;;;25.90;51.10;;;;;;4957376;28;20635;-78
2022/08/15 04:48:16;;;;;;;2.90;1.60;;;25.90;51.10;;;;;;4975241;28;20571;-77
2022/08/15 04:50:45;;;;;;;1.90;1.10;;;25.90;51.20;;;;;;4961041;28;20583;-77
2022/08/15 04:53:14;;;;;;;4.00;1.40;;;25.90;51.20;;;;;;4957709;28;20705;-77
2022/08/15 04:55:43;;;;;;;4.23;1.57;;;25.80;51.20;;;;;;4973396;28;20603;-77
2022/08/15 04:58:13;;;;;;;3.57;1.73;;;25.90;51.40;;;;;;4941431;28;20571;-77
2022/08/15 05:00:43;;;;;;;4.50;1.30;;;25.90;51.50;;;;;;4941560;28;20665;-77
2022/08/15 05:03:17;;;;;;;4.53;1.53;;;25.80;51.50;;;;;;4973530;28;20575;-78
2022/08/15 05:05:51;;;;;;;1.93;1.20;;;25.90;51.60;;;;;;4956738;28;20753;-78
2022/08/15 05:08:20;;;;;;;3.00;1.30;;;25.90;51.70;;;;;;4973323;28;20579;-78
2022/08/15 05:10:54;;;;;;;5.03;1.47;;;25.90;51.70;;;;;;4957288;28;20575;-78
2022/08/15 05:13:30;;;;;;;3.07;2.30;;;25.90;51.90;;;;;;4973251;28;20768;-78
2022/08/15 05:15:58;;;;;;;2.50;1.30;;;25.90;51.90;;;;;;4972944;28;21050;-79
2022/08/15 05:18:37;;;;;;;2.70;1.30;;;25.90;51.90;;;;;;4957228;28;21055;-78
2022/08/15 05:21:07;;;;;;;3.20;1.40;;;25.90;52.00;;;;;;4973274;28;20613;-78
2022/08/15 05:23:35;;;;;;;1.70;1.10;;;25.90;52.00;;;;;;4973258;28;20567;-78
2022/08/15 05:26:04;;;;;;;4.13;1.77;;;25.90;52.10;;;;;;4957687;28;20615;-78
2022/08/15 05:28:32;;;;;;;3.07;1.97;;;26.00;52.30;;;;;;4957383;28;20571;-78
2022/08/15 05:31:11;;;;;;;5.73;1.57;;;26.00;52.30;;;;;;4957146;28;20578;-82
2022/08/15 05:33:42;;;;;;;3.50;1.50;;;26.00;52.40;;;;;;4957606;28;20619;-82
2022/08/15 05:36:11;;;;;;;4.57;1.40;;;26.00;52.40;;;;;;4941498;28;20607;-82
2022/08/15 05:38:41;;;;;;;7.50;1.60;;;26.00;52.60;;;;;;4973287;28;20816;-82
2022/08/15 05:41:31;;;;;;;2.40;1.23;;;26.00;52.60;;;;;;4956956;28;20571;-82
2022/08/15 05:44:31;;;;;;;2.87;1.30;;;26.00;52.70;;;;;;4956802;28;21130;-83
2022/08/15 05:47:09;;;;;;;5.23;1.33;;;26.10;52.90;;;;;;4940819;28;20595;-83
2022/08/15 05:49:50;;;;;;;4.63;2.20;;;26.20;53.00;;;;;;4974183;28;20586;-82
2022/08/15 05:52:42;;;;;;;3.03;1.53;;;26.30;53.10;;;;;;4956935;28;20578;-82
2022/08/15 05:55:30;;;;;;;3.30;1.40;;;26.30;53.10;;;;;;4972594;28;20607;-82
2022/08/15 05:58:14;;;;;;;4.77;1.50;;;26.50;53.20;;;;;;4956851;28;20567;-82
2022/08/15 06:00:55;;;;;;;2.03;1.20;;;26.60;53.30;;;;;;4948826;28;20607;-81
2022/08/15 06:03:26;;;;;;;4.10;1.30;;;26.80;53.40;;;;;;4951412;28;20575;-81
2022/08/15 06:05:56;;;;;;;2.93;1.50;;;27.00;53.30;;;;;;4937164;29;20635;-81
2022/08/15 06:08:28;;;;;;;2.30;1.37;;;27.10;53.30;;;;;;4933921;29;20672;-80
2022/08/15 06:11:02;;;;;;;3.60;1.33;;;27.40;53.90;;;;;;4934420;29;20561;-81
2022/08/15 06:13:55;;;;;;;2.50;1.60;;;27.60;53.10;;;;;;4934328;29;20667;-81
2022/08/15 06:16:36;;;;;;;3.17;1.77;;;27.70;53.00;;;;;;4934453;29;20705;-82
2022/08/15 06:19:20;;;;;;;4.10;1.53;;;28.00;52.90;;;;;;4919215;29;20589;-81
2022/08/15 06:21:52;;;;;;;4.73;1.40;;;28.20;52.70;;;;;;4920124;29;20625;-82
2022/08/15 06:24:26;;;;;;;7.07;1.53;;;28.40;52.60;;;;;;4940479;29;20597;-81
2022/08/15 06:27:07;;;;;;;3.50;1.57;;;28.60;52.40;;;;;;4935179;29;20580;-82
2022/08/15 06:29:32;;;;;;;5.07;1.80;;;28.70;51.90;;;;;;4936277;29;20569;-82
2022/08/15 06:32:11;;;;;;;4.50;1.53;;;28.80;51.90;;;;;;4934987;29;20601;-82
2022/08/15 06:34:55;;;;;;;4.40;1.33;;;28.90;51.50;;;;;;4933929;29;20220;-83
2022/08/15 06:37:37;;;;;;;4.03;1.40;;;28.90;51.40;;;;;;4935376;29;20577;-82
2022/08/15 06:40:25;;;;;;;4.00;1.30;;;28.90;51.10;;;;;;4938173;29;20580;-82
2022/08/15 06:42:51;;;;;;;4.27;1.07;;;28.90;51.00;;;;;;4933837;29;20581;-81
2022/08/15 06:45:36;;;;;;;5.30;1.77;;;28.90;51.00;;;;;;4934154;29;20625;-81
2022/08/15 06:48:08;;;;;;;2.93;1.40;;;28.90;51.00;;;;;;4918958;29;20640;-82
2022/08/15 06:50:39;;;;;;;3.47;1.27;;;28.90;50.90;;;;;;4939881;29;20569;-80
2022/08/15 06:53:29;;;;;;;5.70;1.40;;;28.80;50.80;;;;;;4950825;29;20624;-81
2022/08/15 06:56:15;;;;;;;2.97;1.33;;;28.80;50.80;;;;;;4955648;29;20684;-80
2022/08/15 06:59:18;;;;;;;3.67;1.20;;;28.80;51.50;;;;;;4952569;29;20576;-80
2022/08/15 07:02:22;;;;;;;6.73;1.23;;;28.80;50.80;;;;;;4954306;29;20560;-81
2022/08/15 07:05:07;;;;;;;2.37;0.90;;;28.80;50.80;;;;;;4939652;29;21238;-81
2022/08/15 07:08:10;;;;;;;2.40;1.37;;;28.90;50.90;;;;;;4939584;29;20576;-82
2022/08/15 07:10:54;;;;;;;2.60;1.20;;;29.00;50.80;;;;;;4939136;29;20614;-80
2022/08/15 07:14:06;;;;;;;2.77;1.20;;;29.00;50.80;;;;;;4956097;29;20718;-81
2022/08/15 07:17:00;;;;;;;2.40;1.20;;;29.10;50.60;;;;;;4943616;29;20576;-81
2022/08/15 07:19:26;;;;;;;2.83;1.20;;;29.20;50.60;;;;;;4943268;29;20592;-82
2022/08/15 07:22:03;;;;;;;2.83;1.20;;;29.20;50.50;;;;;;4954860;29;20591;-82
2022/08/15 07:24:31;;;;;;;3.27;1.10;;;29.20;50.40;;;;;;4944880;29;20982;-81
2022/08/15 07:27:03;;;;;;;2.93;1.33;;;29.20;50.40;;;;;;4938693;29;20588;-81
2022/08/15 07:29:39;;;;;;;2.70;1.40;;;29.30;50.50;;;;;;4938826;29;20610;-82
2022/08/15 07:32:11;;;;;;;2.67;1.20;;;29.40;50.40;;;;;;4941748;29;20574;-82
2022/08/15 07:34:56;;;;;;;5.53;1.50;;;29.50;50.30;;;;;;4925693;29;21223;-82
2022/08/15 07:37:24;;;;;;;7.60;1.20;;;29.60;50.00;;;;;;4956550;29;21509;-83
2022/08/15 07:40:00;;;;;;;2.83;1.47;;;29.70;50.00;;;;;;4921290;29;20587;-84
2022/08/15 07:42:28;;;;;;;6.43;1.73;;;29.80;49.90;;;;;;4936088;29;21026;-83
2022/08/15 07:44:58;;;;;;;2.43;1.20;;;29.90;49.80;;;;;;4935821;29;20611;-82
2022/08/15 07:47:28;;;;;;;8.23;1.50;;;29.90;49.70;;;;;;4952043;29;20576;-81
2022/08/15 07:50:31;;;;;;;4.37;1.30;;;29.90;49.60;;;;;;4936042;29;21049;-82
2022/08/15 07:53:17;;;;;;;3.30;1.33;;;29.90;49.50;;;;;;4936183;28;20630;-81
2022/08/15 07:56:12;;;;;;;3.40;1.30;;;29.80;49.20;;;;;;4940822;29;20714;-81
2022/08/15 07:58:40;;;;;;;2.80;1.47;;;29.70;49.20;;;;;;4941889;29;21177;-81
2022/08/15 08:01:22;;;;;;;3.87;1.67;;;29.70;49.30;;;;;;4946385;29;20619;-82
2022/08/15 08:03:58;;;;;;;3.90;1.50;;;29.60;49.30;;;;;;4947372;29;20603;-82
2022/08/15 08:06:42;;;;;;;4.73;1.63;;;29.40;49.30;;;;;;4944497;29;20591;-82
2022/08/15 08:09:30;;;;;;;2.90;1.30;;;29.40;49.60;;;;;;4944989;29;20644;-82
2022/08/15 08:12:07;;;;;;;2.63;1.63;;;29.30;49.80;;;;;;4935046;28;20638;-81
2022/08/15 08:14:44;;;;;;;3.13;1.37;;;29.20;49.90;;;;;;4952740;28;20713;-80
2022/08/15 08:17:36;;;;;;;5.67;1.77;;;29.20;50.10;;;;;;4949482;29;20945;-80
2022/08/15 08:20:45;;;;;;;4.70;1.47;;;29.10;50.20;;;;;;4962372;28;20580;-81
2022/08/15 08:23:14;;;;;;;4.50;1.10;;;29.10;50.40;;;;;;4848881;29;20596;-80
2022/08/15 08:25:45;;;;;;;3.57;1.30;;;29.10;50.30;;;;;;4946834;29;21033;-81
2022/08/15 08:28:29;;;;;;;3.77;2.30;;;29.10;50.40;;;;;;4941919;29;20646;-81
2022/08/15 08:31:21;;;;;;;2.63;1.70;;;29.10;50.40;;;;;;4955369;29;20579;-82
2022/08/15 08:34:29;;;;;;;1.70;1.10;;;29.10;50.60;;;;;;4959646;28;20693;-82
2022/08/15 08:37:16;;;;;;;2.47;1.40;;;29.00;50.70;;;;;;4960148;28;20959;-82
2022/08/15 08:41:24;;;;;;;3.57;1.10;;;29.00;50.80;;;;;;4963984;28;20579;-82
2022/08/15 08:43:00;;;;;;;4.57;1.40;;;29.00;50.90;;;;;;4975035;28;20641;-83
2022/08/15 08:45:43;;;;;;;3.03;1.47;;;29.00;51.00;;;;;;4965754;28;20627;-82
2022/08/15 08:48:15;;;;;;;3.07;1.50;;;28.90;51.10;;;;;;4963658;28;20658;-82
2022/08/15 08:50:48;;;;;;;2.77;1.30;;;28.90;51.00;;;;;;4955784;29;20661;-81
2022/08/15 08:53:30;;;;;;;3.00;1.40;;;28.80;51.10;;;;;;4955736;29;20751;-82
2022/08/15 08:56:13;;;;;;;3.30;1.57;;;28.70;51.20;;;;;;4938056;29;20616;-82
2022/08/15 08:58:47;;;;;;;4.93;1.43;;;28.70;51.30;;;;;;4955814;29;20637;-81
2022/08/15 09:01:18;;;;;;;3.00;1.33;;;28.60;51.30;;;;;;4956153;29;20584;-81
2022/08/15 09:03:49;;;;;;;2.33;1.30;;;28.50;51.40;;;;;;4959285;28;20674;-82
2022/08/15 09:06:24;;;;;;;2.67;1.20;;;28.40;51.50;;;;;;4954182;28;21077;-82
2022/08/15 09:09:13;;;;;;;3.67;1.50;;;28.40;51.90;;;;;;4955298;28;20931;-82
2022/08/15 09:11:38;;;;;;;2.47;1.20;;;28.30;52.00;;;;;;4940325;29;20592;-82
2022/08/15 09:14:22;;;;;;;2.17;1.50;;;28.30;52.10;;;;;;4938495;29;20645;-75
2022/08/15 09:16:51;;;;;;;2.03;1.40;;;28.30;52.50;;;;;;4937709;29;20180;-74
2022/08/15 09:19:47;;;;;;;3.67;1.40;;;28.40;52.60;;;;;;4955079;29;20651;-74
2022/08/15 09:22:13;;;;;;;1.80;1.17;;;28.40;52.90;;;;;;4942395;28;20591;-75
2022/08/15 09:24:40;;;;;;;2.80;1.30;;;28.50;52.80;;;;;;4961268;28;20958;-75
2022/08/15 09:27:17;;;;;;;3.07;1.70;;;28.60;53.00;;;;;;4962661;28;20216;-75
2022/08/15 09:29:51;;;;;;;3.63;1.83;;;28.60;53.20;;;;;;4954792;29;21018;-75
2022/08/15 09:32:23;;;;;;;3.40;1.73;;;28.70;53.00;;;;;;4954833;29;20988;-74
2022/08/15 09:34:58;;;;;;;5.13;1.77;;;28.80;52.90;;;;;;4953613;29;21210;-75
2022/08/15 09:37:48;;;;;;;4.73;1.63;;;28.90;52.90;;;;;;4947176;29;20588;-75
2022/08/15 09:40:49;;;;;;;2.83;2.17;;;29.00;52.70;;;;;;4942572;28;20601;-75
2022/08/15 09:43:40;;;;;;;4.50;1.90;;;29.00;52.70;;;;;;4963647;28;21092;-73
2022/08/15 09:46:09;;;;;;;2.27;1.50;;;29.10;52.60;;;;;;4973238;28;20614;-74
2022/08/15 09:48:45;;;;;;;4.20;1.50;;;29.10;52.50;;;;;;4961916;28;20583;-75
2022/08/15 09:51:39;;;;;;;3.13;1.40;;;29.10;52.30;;;;;;4954203;29;20627;-75
2022/08/15 09:54:18;;;;;;;5.30;1.80;;;29.00;52.10;;;;;;4954159;29;20681;-75
2022/08/15 09:56:44;;;;;;;2.70;1.20;;;29.00;52.10;;;;;;4953088;28;20946;-74
2022/08/15 09:59:25;;;;;;;3.60;1.87;;;29.00;52.10;;;;;;4948331;28;20586;-75
2022/08/15 10:01:59;;;;;;;3.40;1.97;;;29.00;52.20;;;;;;4973455;28;20567;-75
2022/08/15 10:04:49;;;;;;;3.17;1.70;;;29.00;52.10;;;;;;4955304;28;20770;-74
2022/08/15 10:07:15;;;;;;;4.20;2.27;;;29.00;52.30;;;;;;4960256;28;20654;-75
2022/08/15 10:10:06;;;;;;;4.13;1.63;;;29.10;52.30;;;;;;4946415;28;20583;-74
2022/08/15 10:12:32;;;;;;;3.23;1.77;;;29.10;52.30;;;;;;4925183;28;20215;-75
2022/08/15 10:15:25;;;;;;;5.20;1.33;;;29.20;52.30;;;;;;4972237;28;20773;-75
2022/08/15 10:17:52;;;;;;;4.43;1.57;;;29.30;52.10;;;;;;4962100;28;20602;-75
2022/08/15 10:20:22;;;;;;;3.07;1.30;;;29.40;51.90;;;;;;4959569;28;20630;-75
2022/08/15 10:22:59;;;;;;;2.80;1.80;;;29.40;51.90;;;;;;4940978;28;20599;-75
2022/08/15 10:25:39;;;;;;;4.07;1.50;;;29.50;51.80;;;;;;4964089;28;20651;-75
2022/08/15 10:28:13;;;;;;;1.90;1.40;;;29.60;51.60;;;;;;4949443;28;20585;-75
2022/08/15 10:30:46;;;;;;;2.33;1.20;;;29.70;51.50;;;;;;4953299;28;20667;-75
2022/08/15 10:33:33;;;;;;;3.27;1.63;;;29.70;51.40;;;;;;4953730;28;21285;-76
2022/08/15 10:36:14;;;;;;;3.43;1.30;;;29.70;51.00;;;;;;4955123;28;20619;-75
2022/08/15 10:39:12;;;;;;;2.97;1.53;;;29.80;50.90;;;;;;4947208;28;20589;-76
2022/08/15 10:41:59;;;;;;;3.73;1.50;;;29.80;50.70;;;;;;4948841;28;20595;-75
2022/08/15 10:44:47;;;;;;;2.13;1.57;;;29.70;50.70;;;;;;4956994;28;20603;-76
2022/08/15 10:47:48;;;;;;;2.73;1.53;;;29.60;50.90;;;;;;4961824;28;21209;-75
2022/08/15 10:50:24;;;;;;;2.47;1.50;;;29.60;51.00;;;;;;4944060;28;21189;-75
2022/08/15 10:52:56;;;;;;;2.10;1.10;;;29.40;51.10;;;;;;4972588;28;21075;-75
2022/08/15 10:55:27;;;;;;;3.17;1.30;;;29.20;51.30;;;;;;4972092;28;20702;-75
2022/08/15 10:58:16;;;;;;;2.03;1.07;;;29.00;51.50;;;;;;4955923;28;20583;-74
2022/08/15 11:01:02;;;;;;;3.47;1.60;;;28.80;51.90;;;;;;4939644;29;20592;-74
2022/08/15 11:03:38;;;;;;;3.37;1.40;;;28.70;52.30;;;;;;4935673;28;20615;-75
2022/08/15 11:06:07;;;;;;;1.80;1.17;;;28.50;52.50;;;;;;4946933;28;20622;-74
2022/08/15 11:08:36;;;;;;;1.70;1.20;;;28.40;52.70;;;;;;4955771;28;20604;-75
2022/08/15 11:11:10;;;;;;;2.37;1.27;;;28.30;52.90;;;;;;4915602;29;20604;-75
2022/08/15 11:13:37;;;;;;;3.00;1.80;;;28.20;54.10;;;;;;4958988;28;20748;-76
2022/08/15 11:16:17;;;;;;;2.07;1.40;;;28.00;55.60;;;;;;4962689;28;20183;-75
2022/08/15 11:18:53;;;;;;;2.80;1.37;;;27.90;55.10;;;;;;4955615;28;21043;-76
2022/08/15 11:21:46;;;;;;;3.33;2.20;;;27.90;55.30;;;;;;4972499;28;20897;-75
2022/08/15 11:24:12;;;;;;;2.90;1.50;;;27.90;55.50;;;;;;4954911;28;20666;-76
2022/08/15 11:26:42;;;;;;;3.70;1.40;;;27.90;55.40;;;;;;4972252;28;20641;-76
2022/08/15 11:29:17;;;;;;;3.60;2.17;;;27.80;56.00;;;;;;4961057;28;20680;-76
2022/08/15 11:31:44;;;;;;;3.40;1.77;;;27.80;56.70;;;;;;4955562;28;20595;-76
2022/08/15 11:34:46;;;;;;;2.37;1.47;;;27.70;56.70;;;;;;4954735;29;20640;-75
2022/08/15 11:37:21;;;;;;;3.07;2.27;;;27.50;57.20;;;;;;4956848;29;21497;-76
2022/08/15 11:40:23;;;;;;;5.60;2.00;;;27.40;57.50;;;;;;4934823;29;20913;-75
2022/08/15 11:42:50;;;;;;;5.63;2.33;;;27.30;58.00;;;;;;4937612;29;20583;-76
2022/08/15 11:45:20;;;;;;;5.03;1.67;;;27.20;57.80;;;;;;4936899;29;20605;-76
2022/08/15 11:47:49;;;;;;;3.10;1.83;;;27.10;58.70;;;;;;4946893;28;21182;-75
2022/08/15 11:50:35;;;;;;;2.87;1.70;;;27.10;59.10;;;;;;4967851;28;20591;-75
2022/08/15 11:53:08;;;;;;;2.67;1.80;;;27.00;59.90;;;;;;4975864;28;20569;-75
2022/08/15 11:55:34;;;;;;;2.97;1.80;;;27.00;60.70;;;;;;4975392;28;20598;-75
2022/08/15 11:58:03;;;;;;;1.93;1.47;;;26.90;60.20;;;;;;4958173;28;20571;-75
2022/08/15 12:00:41;;;;;;;3.20;1.70;;;26.90;60.80;;;;;;4975921;28;20164;-74
2022/08/15 12:03:21;;;;;;;3.30;1.70;;;26.90;62.70;;;;;;4948826;29;20599;-75
2022/08/15 12:05:50;;;;;;;2.57;1.50;;;26.90;62.50;;;;;;4964986;28;20606;-75
2022/08/15 12:08:36;;;;;;;2.20;1.57;;;26.90;62.60;;;;;;4958230;28;20582;-76
2022/08/15 12:11:21;;;;;;;3.73;1.63;;;26.90;63.50;;;;;;4975335;28;20627;-76
2022/08/15 12:13:57;;;;;;;3.10;1.53;;;26.90;64.10;;;;;;4958551;28;20960;-76
2022/08/15 12:16:31;;;;;;;3.80;2.03;;;27.10;64.30;;;;;;4974004;28;20669;-76
2022/08/15 12:19:19;;;;;;;4.93;1.80;;;27.20;64.40;;;;;;4958168;28;20590;-76
2022/08/15 12:21:50;;;;;;;2.23;1.67;;;27.40;64.80;;;;;;4975182;28;20638;-74
2022/08/15 12:24:24;;;;;;;3.03;2.00;;;27.60;65.30;;;;;;4957754;28;20575;-75
2022/08/15 12:26:51;;;;;;;3.50;2.03;;;27.70;65.50;;;;;;4975052;28;20585;-76
2022/08/15 12:29:22;;;;;;;2.77;2.40;;;27.90;65.00;;;;;;4971315;28;20607;-75
2022/08/15 12:31:49;;;;;;;4.37;2.50;;;28.10;64.70;;;;;;4964582;28;20678;-74
2022/08/15 12:34:23;;;;;;;2.53;1.60;;;28.20;64.30;;;;;;4969517;28;20630;-75
2022/08/15 12:36:51;;;;;;;2.63;1.83;;;28.30;64.20;;;;;;4974884;28;20975;-75
2022/08/15 12:39:18;;;;;;;2.60;1.60;;;28.40;63.80;;;;;;4973386;28;20595;-73
2022/08/15 12:41:48;;;;;;;2.20;1.57;;;28.60;63.80;;;;;;4957825;28;20582;-74
2022/08/15 12:44:27;;;;;;;2.10;1.50;;;28.70;63.40;;;;;;4957311;28;20598;-76
2022/08/15 12:46:54;;;;;;;2.63;1.30;;;28.80;63.30;;;;;;4974477;28;20936;-74
2022/08/15 12:49:20;;;;;;;4.70;1.90;;;29.00;63.10;;;;;;4959957;28;20599;-74
2022/08/15 12:51:46;;;;;;;2.10;1.30;;;29.20;63.10;;;;;;4949353;28;20590;-75
2022/08/15 12:54:12;;;;;;;2.20;1.10;;;29.30;62.10;;;;;;4948534;29;21198;-75
2022/08/15 12:56:39;;;;;;;2.23;1.53;;;29.50;61.30;;;;;;4963232;28;21014;-76
2022/08/15 12:59:05;;;;;;;2.40;1.30;;;29.60;60.50;;;;;;4967787;28;20963;-76
2022/08/15 13:01:36;;;;;;;3.03;1.80;;;29.80;59.90;;;;;;4953434;28;20599;-75
2022/08/15 13:04:06;;;;;;;2.80;1.27;;;29.80;59.10;;;;;;4949384;28;20176;-75
2022/08/15 13:06:45;;;;;;;2.37;1.30;;;29.90;58.20;;;;;;4953280;28;20583;-75
2022/08/15 13:09:12;;;;;;;2.20;1.30;;;29.90;58.20;;;;;;4966025;28;20646;-75
2022/08/15 13:11:41;;;;;;;4.43;1.60;;;30.10;58.60;;;;;;4945053;28;20589;-75
2022/08/15 13:14:08;;;;;;;2.80;1.47;;;30.30;58.30;;;;;;4973139;28;20618;-76
2022/08/15 13:16:35;;;;;;;4.10;1.80;;;30.40;58.00;;;;;;4974409;28;20574;-75
2022/08/15 13:19:02;;;;;;;2.07;1.27;;;30.60;57.50;;;;;;4946947;28;20599;-74
2022/08/15 13:24:13;;;;;;;1.60;1.33;;;30.80;56.40;;;;;;4961757;28;20598;-76
2022/08/15 13:26:41;;;;;;;2.20;1.33;;;30.90;56.10;;;;;;4963462;28;20592;-75
2022/08/15 13:29:07;;;;;;;2.60;1.47;;;30.90;55.80;;;;;;4956969;28;20567;-75
2022/08/15 13:31:34;;;;;;;2.10;1.40;;;31.10;56.00;;;;;;4972883;28;20931;-75